Time;durP1;ratioP1;P1;durP2;ratioP2;P2;SDS_P1;SDS_P2;PMS_P1;PMS_P2;Temp;Humidity;BMP_temperature;BMP_pressure;BME280_temperature;BME280_humidity;BME280_pressure;Samples;Min_cycle;Max_cycle;Signal;HPM_P1;HPM_P2
2022/06/18 00:01:35;;;;;;;17.02;12.28;;;;;;;14.78;100.00;100254.59;1647948;85;21087;-72
2022/06/18 00:04:06;;;;;;;15.95;11.85;;;;;;;14.75;100.00;100252.12;1654889;86;21528;-71
2022/06/18 00:06:38;;;;;;;12.98;11.48;;;;;;;14.70;100.00;100240.91;1654962;86;21158;-72
2022/06/18 00:09:05;;;;;;;16.40;11.65;;;;;;;14.66;100.00;100239.34;1653750;86;21551;-72
2022/06/18 00:14:18;;;;;;;14.73;13.08;;;;;;;14.64;100.00;100235.91;1640321;86;21574;-72
2022/06/18 00:16:44;;;;;;;18.07;12.90;;;;;;;14.57;100.00;100233.20;1654689;86;21075;-73
2022/06/18 00:19:11;;;;;;;17.90;13.10;;;;;;;14.59;100.00;100229.53;1654592;86;21599;-71
2022/06/18 00:21:38;;;;;;;14.87;12.23;;;;;;;14.55;100.00;100225.31;1654940;86;21084;-72
2022/06/18 00:24:20;;;;;;;19.75;13.40;;;;;;;14.54;100.00;100221.38;1654563;86;21572;-72
2022/06/18 00:29:18;;;;;;;16.42;12.95;;;;;;;14.50;100.00;100220.70;1796559;79;22460;-72
2022/06/18 00:31:45;;;;;;;15.63;12.88;;;;;;;14.49;100.00;100221.61;1756354;81;21096;-73
2022/06/18 00:34:12;;;;;;;16.35;13.22;;;;;;;14.51;100.00;100213.59;1756597;81;21320;-72
2022/06/18 00:36:40;;;;;;;15.38;12.95;;;;;;;14.53;100.00;100217.03;1756311;81;21053;-72
2022/06/18 00:39:13;;;;;;;14.98;11.78;;;;;;;14.53;100.00;100211.73;1756357;81;21016;-71
2022/06/18 00:41:42;;;;;;;14.78;11.65;;;;;;;14.51;100.00;100205.64;1736871;81;21069;-73
2022/06/18 00:44:29;;;;;;;14.05;11.03;;;;;;;14.55;100.00;100204.59;1756436;81;21006;-71
2022/06/18 00:47:08;;;;;;;16.27;12.60;;;;;;;14.54;100.00;100200.17;1701102;81;21155;-73
2022/06/18 00:49:51;;;;;;;17.15;13.08;;;;;;;14.47;100.00;100205.81;1754642;81;20972;-72
2022/06/18 00:52:38;;;;;;;16.95;13.40;;;;;;;14.41;100.00;100206.13;1756352;81;21518;-72
2022/06/18 00:55:17;;;;;;;23.00;13.10;;;;;;;14.50;100.00;100203.47;1756377;81;21555;-72
2022/06/18 00:58:01;;;;;;;14.95;12.15;;;;;;;14.46;100.00;100198.78;1744602;81;21562;-72
2022/06/18 01:00:39;;;;;;;17.55;13.78;;;;;;;14.39;100.00;100206.67;1726063;82;21147;-71
2022/06/18 01:03:23;;;;;;;46.77;40.67;;;;;;;14.46;100.00;100201.91;1708551;83;21175;-72
2022/06/18 01:05:50;;;;;;;89.47;66.37;;;;;;;14.35;100.00;100201.12;1726331;83;21051;-72
2022/06/18 01:08:18;;;;;;;79.20;61.55;;;;;;;14.35;100.00;100201.12;1726023;82;21598;-72
2022/06/18 01:10:54;;;;;;;39.18;33.02;;;;;;;14.39;100.00;100207.99;1726791;81;21102;-72
2022/06/18 01:13:25;;;;;;;27.22;21.33;;;;;;;14.40;100.00;100208.40;1725966;82;21812;-72
2022/06/18 01:15:52;;;;;;;;;;;;;;;14.36;100.00;100202.86;1728800;83;21020;-73
2022/06/18 01:18:21;;;;;;;15.00;13.30;;;;;;;14.35;100.00;100206.43;1726334;82;20202;-73
2022/06/18 01:20:53;;;;;;;16.90;12.95;;;;;;;14.39;100.00;100205.81;1726302;83;21062;-72
2022/06/18 01:23:37;;;;;;;15.13;13.15;;;;;;;14.37;100.00;100203.23;1726280;82;21088;-71
2022/06/18 01:26:03;;;;;;;21.85;14.23;;;;;;;14.34;100.00;100200.75;1726496;83;21122;-73
2022/06/18 01:28:30;;;;;;;14.63;12.37;;;;;;;14.43;100.00;100203.41;1722999;82;21062;-73
2022/06/18 01:30:57;;;;;;;19.67;13.75;;;;;;;14.41;100.00;100208.77;1720992;83;21842;-73
2022/06/18 01:33:24;;;;;;;15.58;13.03;;;;;;;14.32;100.00;100201.30;1721059;83;21074;-71
2022/06/18 01:35:53;;;;;;;14.95;11.75;;;;;;;14.32;100.00;100201.77;1721330;83;21070;-72
2022/06/18 01:38:28;;;;;;;20.62;11.75;;;;;;;14.30;100.00;100200.52;1721015;83;21128;-71
2022/06/18 01:44:05;;;;;;;13.38;11.35;;;;;;;14.27;100.00;100205.51;1720489;82;21106;-72
2022/06/18 01:46:32;;;;;;;13.53;11.05;;;;;;;14.26;100.00;100202.48;1691651;84;21063;-72
2022/06/18 01:49:02;;;;;;;15.03;9.88;;;;;;;14.27;100.00;100204.19;1691873;84;21106;-71
2022/06/18 01:51:36;;;;;;;11.12;10.00;;;;;;;14.28;100.00;100199.73;1692156;84;21114;-72
2022/06/18 01:54:13;;;;;;;11.45;9.55;;;;;;;14.28;100.00;100197.09;1691729;84;21086;-72
2022/06/18 01:56:44;;;;;;;12.82;10.80;;;;;;;14.32;100.00;100196.48;1691974;84;21655;-72
2022/06/18 01:59:25;;;;;;;15.80;10.68;;;;;;;14.21;100.00;100199.66;1691733;84;21091;-73
2022/06/18 02:01:52;;;;;;;15.68;10.30;;;;;;;14.20;100.00;100201.94;1692162;84;21066;-73
2022/06/18 02:04:20;;;;;;;14.33;10.88;;;;;;;14.17;100.00;100196.77;1691720;84;21815;-72
2022/06/18 02:06:47;;;;;;;12.88;10.58;;;;;;;14.16;100.00;100191.10;1692014;84;21435;-72
2022/06/18 02:09:48;;;;;;;14.03;11.45;;;;;;;14.15;100.00;100188.05;1691732;84;21028;-72
2022/06/18 02:12:18;;;;;;;;;;;;;;;14.14;100.00;100189.00;1693986;84;21079;-72
2022/06/18 02:14:51;;;;;;;11.97;9.73;;;;;;;14.15;100.00;100195.99;1691765;84;20429;-74
2022/06/18 02:17:19;;;;;;;12.37;10.23;;;;;;;14.10;100.00;100186.11;1691722;84;21553;-72
2022/06/18 02:19:53;;;;;;;16.97;10.10;;;;;;;14.11;100.00;100188.69;1673926;84;21507;-72
2022/06/18 02:22:29;;;;;;;12.25;10.43;;;;;;;14.10;100.00;100187.43;1674519;84;21074;-71
2022/06/18 02:24:56;;;;;;;16.07;10.88;;;;;;;14.11;100.00;100186.52;1691863;84;21086;-72
2022/06/18 02:27:24;;;;;;;14.38;10.13;;;;;;;14.13;100.00;100186.82;1692082;84;21098;-71
2022/06/18 02:29:51;;;;;;;13.83;10.98;;;;;;;14.14;100.00;100191.64;1724859;82;21053;-71
2022/06/18 02:32:35;;;;;;;14.00;11.40;;;;;;;14.13;100.00;100193.44;1685826;83;21041;-72
2022/06/18 02:35:14;;;;;;;16.10;11.30;;;;;;;14.16;100.00;100189.78;1725526;82;21568;-73
2022/06/18 02:37:41;;;;;;;14.40;11.22;;;;;;;14.21;100.00;100193.05;1725920;83;21068;-72
2022/06/18 02:40:23;;;;;;;13.10;10.63;;;;;;;14.23;100.00;100193.83;1725740;82;21060;-72
2022/06/18 02:42:50;;;;;;;12.75;10.08;;;;;;;14.25;100.00;100195.93;1725723;82;21138;-72
2022/06/18 02:45:17;;;;;;;11.60;9.58;;;;;;;14.26;100.00;100196.30;1689348;84;21112;-71
2022/06/18 02:47:45;;;;;;;12.93;10.20;;;;;;;14.28;100.00;100197.09;1665684;84;21018;-72
2022/06/18 02:50:15;;;;;;;10.55;9.35;;;;;;;14.37;100.00;100197.94;1691063;84;21087;-71
2022/06/18 02:52:48;;;;;;;12.18;10.05;;;;;;;14.43;100.00;100198.95;1691014;84;21087;-72
2022/06/18 02:55:34;;;;;;;14.95;11.18;;;;;;;14.41;100.00;100202.15;1691221;84;21102;-72
2022/06/18 02:58:12;;;;;;;12.13;9.93;;;;;;;14.42;100.00;100203.88;1690769;84;21053;-71
2022/06/18 03:00:42;;;;;;;11.68;10.18;;;;;;;14.48;100.00;100203.54;1690689;84;21060;-72
2022/06/18 03:03:12;;;;;;;13.83;9.60;;;;;;;14.51;100.00;100202.52;1690904;84;21323;-74
2022/06/18 03:05:39;;;;;;;9.43;8.43;;;;;;;14.54;100.00;100202.83;1690851;84;21036;-72
2022/06/18 03:08:06;;;;;;;13.58;8.13;;;;;;;14.57;100.00;100204.05;1690657;84;21199;-73
2022/06/18 03:13:20;;;;;;;11.08;8.28;;;;;;;14.70;100.00;100209.09;1690822;84;21080;-72
2022/06/18 03:15:52;;;;;;;12.18;9.03;;;;;;;14.77;100.00;100209.59;1691196;84;21045;-71
2022/06/18 03:18:22;;;;;;;12.50;8.48;;;;;;;14.79;100.00;100208.61;1690911;84;21005;-72
2022/06/18 03:20:56;;;;;;;11.53;9.08;;;;;;;14.80;100.00;100206.33;1691279;84;20990;-71
2022/06/18 03:23:23;;;;;;;12.93;9.78;;;;;;;14.81;100.00;100214.66;1690746;84;21079;-71
2022/06/18 03:25:52;;;;;;;11.53;10.32;;;;;;;14.79;100.00;100213.91;1690726;84;21033;-72
2022/06/18 03:28:20;;;;;;;13.28;10.30;;;;;;;14.75;100.00;100215.00;1689636;84;21161;-73
2022/06/18 03:30:47;;;;;;;13.38;10.60;;;;;;;14.75;100.00;100220.30;1658287;85;21080;-72
2022/06/18 03:33:14;;;;;;;12.85;10.65;;;;;;;14.75;100.00;100217.66;1685557;85;21895;-72
2022/06/18 03:35:46;;;;;;;13.85;11.00;;;;;;;14.79;100.00;100226.28;1685666;85;21037;-72
2022/06/18 03:38:14;;;;;;;12.37;10.58;;;;;;;14.78;100.00;100222.78;1685764;85;21044;-71
2022/06/18 03:40:43;;;;;;;17.67;11.63;;;;;;;14.80;100.00;100223.56;1685990;85;21084;-71
2022/06/18 03:43:12;;;;;;;16.40;12.40;;;;;;;14.80;100.00;100224.03;1685745;85;21060;-73
2022/06/18 03:45:42;;;;;;;15.13;12.70;;;;;;;14.77;100.00;100219.76;1707688;83;21121;-71
2022/06/18 03:48:26;;;;;;;15.30;11.57;;;;;;;14.79;100.00;100220.53;1720213;83;21125;-73
2022/06/18 03:50:54;;;;;;;14.80;12.50;;;;;;;14.79;100.00;100220.53;1720459;83;21525;-72
2022/06/18 03:53:23;;;;;;;15.60;11.97;;;;;;;14.80;100.00;100220.91;1720628;83;21619;-71
2022/06/18 03:55:50;;;;;;;15.85;13.00;;;;;;;14.82;100.00;100226.14;1720417;83;21157;-72
2022/06/18 03:58:18;;;;;;;14.07;11.80;;;;;;;14.83;100.00;100220.73;1720539;83;21138;-72
2022/06/18 04:00:46;;;;;;;16.57;11.60;;;;;;;14.84;100.00;100216.31;1720907;83;21076;-73
2022/06/18 04:03:15;;;;;;;15.25;11.68;;;;;;;14.80;100.00;100217.41;1720612;83;21513;-70
2022/06/18 04:05:43;;;;;;;16.62;13.13;;;;;;;14.81;100.00;100214.66;1720541;82;21156;-72
2022/06/18 04:08:14;;;;;;;15.98;12.95;;;;;;;14.83;100.00;100213.27;1720312;83;21080;-72
2022/06/18 04:10:48;;;;;;;18.92;14.28;;;;;;;14.84;100.00;100211.02;1720105;83;21136;-72
2022/06/18 04:13:16;;;;;;;17.73;13.28;;;;;;;14.86;100.00;100203.80;1720487;83;21080;-73
2022/06/18 04:15:49;;;;;;;21.77;14.58;;;;;;;14.89;100.00;100212.47;1719910;83;21589;-72
2022/06/18 04:18:22;;;;;;;19.92;13.28;;;;;;;15.01;100.00;100212.75;1719634;83;21132;-72
2022/06/18 04:20:49;;;;;;;20.08;14.75;;;;;;;15.03;100.00;100213.52;1720874;83;21640;-71
2022/06/18 04:23:16;;;;;;;18.77;15.95;;;;;;;15.08;100.00;100210.14;1720691;83;22135;-73
2022/06/18 04:25:46;;;;;;;12.20;9.83;;;;;;;15.16;100.00;100211.05;1720775;83;21144;-73
2022/06/18 04:28:15;;;;;;;20.10;15.18;;;;;;;15.26;100.00;100213.11;1720403;82;21069;-73
2022/06/18 04:30:44;;;;;;;22.73;15.20;;;;;;;15.36;100.00;100212.61;1713099;82;21053;-71
2022/06/18 04:33:12;;;;;;;22.87;16.90;;;;;;;15.45;100.00;100215.59;1712627;82;21114;-73
2022/06/18 04:35:41;;;;;;;19.50;16.85;;;;;;;15.51;100.00;100211.77;1712519;82;21144;-72
2022/06/18 04:38:11;;;;;;;19.27;15.83;;;;;;;15.60;100.00;100219.20;1712637;83;21231;-72
2022/06/18 04:40:40;;;;;;;21.05;16.35;;;;;;;15.67;100.00;100217.91;1688856;83;21194;-71
2022/06/18 04:43:17;;;;;;;19.35;16.52;;;;;;;15.79;100.00;100214.21;1712803;82;21117;-72
2022/06/18 04:45:48;;;;;;;20.25;15.48;;;;;;;15.90;100.00;100213.97;1689208;83;21084;-71
2022/06/18 04:48:17;;;;;;;19.07;14.63;;;;;;;16.08;100.00;100221.35;1677981;85;21215;-73
2022/06/18 04:50:44;;;;;;;19.48;14.33;;;;;;;16.38;100.00;100213.84;1678663;85;21065;-73
2022/06/18 04:53:14;;;;;;;14.55;13.08;;;;;;;16.74;100.00;100231.16;1678532;85;21141;-71
2022/06/18 04:55:43;;;;;;;16.20;12.93;;;;;;;17.09;100.00;100229.48;1679009;85;21149;-72
2022/06/18 04:58:10;;;;;;;16.00;12.63;;;;;;;17.40;100.00;100235.07;1678084;85;21145;-70
2022/06/18 05:00:40;;;;;;;19.20;12.07;;;;;;;17.70;100.00;100224.25;1678013;85;21138;-72
2022/06/18 05:03:17;;;;;;;18.62;12.73;;;;;;;17.76;100.00;100203.00;1677911;85;21601;-72
2022/06/18 05:05:46;;;;;;;12.40;10.58;;;;;;;18.09;100.00;100229.27;1657354;85;21615;-73
2022/06/18 05:08:20;;;;;;;12.37;11.08;;;;;;;18.30;100.00;100230.97;1677500;85;21102;-73
2022/06/18 05:10:51;;;;;;;;;;;;;;;18.56;100.00;100234.52;1678938;85;21058;-72
2022/06/18 05:13:22;;;;;;;12.70;10.40;;;;;;;18.91;100.00;100241.95;1678313;85;20202;-73
2022/06/18 05:15:54;;;;;;;12.70;9.63;;;;;;;19.25;100.00;100246.21;1677130;85;21084;-72
2022/06/18 05:18:25;;;;;;;15.53;10.93;;;;;;;19.73;100.00;100240.98;1646221;87;21642;-73
2022/06/18 05:20:53;;;;;;;12.73;8.68;;;;;;;20.25;100.00;100242.45;1678758;85;21069;-72
2022/06/18 05:23:22;;;;;;;9.43;8.43;;;;;;;20.72;96.14;100246.48;1678785;85;21085;-73
2022/06/18 05:25:52;;;;;;;10.32;7.95;;;;;;;21.18;91.79;100245.55;1659284;85;21172;-73
2022/06/18 05:28:21;;;;;;;9.48;8.48;;;;;;;21.61;89.44;100254.69;1626865;87;21086;-72
2022/06/18 05:30:47;;;;;;;11.85;8.30;;;;;;;21.86;87.46;100256.22;1648610;85;21167;-72
2022/06/18 05:33:18;;;;;;;9.13;7.95;;;;;;;21.82;86.12;100252.08;1684229;85;21596;-72
2022/06/18 05:35:46;;;;;;;9.35;6.97;;;;;;;21.84;83.59;100259.02;1684479;83;21537;-73
2022/06/18 05:38:17;;;;;;;8.78;7.15;;;;;;;21.87;82.51;100260.09;1651052;86;21159;-70
2022/06/18 05:40:44;;;;;;;9.40;7.40;;;;;;;21.88;81.57;100253.77;1684671;85;21042;-73
2022/06/18 05:43:11;;;;;;;11.45;7.47;;;;;;;21.95;81.59;100259.48;1650912;86;21366;-72
2022/06/18 05:45:38;;;;;;;10.18;7.00;;;;;;;21.85;79.57;100263.38;1663520;85;21144;-72
2022/06/18 05:48:06;;;;;;;8.35;7.37;;;;;;;21.67;80.46;100260.87;1678108;85;21116;-72
2022/06/18 05:50:33;;;;;;;7.62;6.90;;;;;;;21.54;80.43;100263.22;1678580;85;21111;-72
2022/06/18 05:53:00;;;;;;;7.78;6.97;;;;;;;21.33;80.81;100267.59;1677973;85;21604;-72
2022/06/18 05:55:32;;;;;;;11.38;6.78;;;;;;;21.31;82.25;100264.19;1672875;85;21073;-72
2022/06/18 05:58:13;;;;;;;10.23;7.65;;;;;;;21.43;83.16;100265.91;1648723;85;28261;-72
2022/06/18 06:00:42;;;;;;;10.85;6.25;;;;;;;21.56;81.82;100263.95;1677365;85;21100;-71
2022/06/18 06:03:09;;;;;;;7.15;6.00;;;;;;;21.72;81.34;100266.23;1677881;85;21164;-73
2022/06/18 06:05:37;;;;;;;8.25;6.33;;;;;;;22.07;81.09;100256.27;1678023;85;21068;-72
2022/06/18 06:08:05;;;;;;;8.75;7.10;;;;;;;22.53;79.13;100255.11;1678081;85;21061;-72
2022/06/18 06:13:22;;;;;;;9.30;6.70;;;;;;;23.58;75.17;100246.84;1651210;85;21116;-72
2022/06/18 06:15:52;;;;;;;8.93;6.10;;;;;;;23.97;72.31;100245.13;1678282;85;21096;-73
2022/06/18 06:18:22;;;;;;;11.50;5.47;;;;;;;24.25;70.29;100250.66;1651991;85;21064;-72
2022/06/18 06:20:53;;;;;;;7.12;5.50;;;;;;;24.48;69.00;100247.20;1678301;85;21057;-72
2022/06/18 06:23:20;;;;;;;;;;;;;;;24.86;64.57;100261.06;1662337;85;21078;-73
2022/06/18 06:25:48;;;;;;;14.30;5.40;;;;;;;25.14;64.13;100263.81;1650718;86;20193;-74
2022/06/18 06:28:18;;;;;;;5.50;4.75;;;;;;;25.30;62.37;100261.36;1650790;86;21098;-72
2022/06/18 06:30:45;;;;;;;6.47;4.40;;;;;;;25.54;62.55;100260.83;1650571;86;21153;-73
2022/06/18 06:33:12;;;;;;;6.65;4.03;;;;;;;25.94;60.57;100262.81;1650552;86;21158;-72
2022/06/18 06:35:40;;;;;;;8.50;4.70;;;;;;;26.16;58.46;100255.62;1650792;86;22317;-72
2022/06/18 06:38:07;;;;;;;5.60;4.70;;;;;;;26.39;58.40;100260.55;1650555;86;21080;-72
2022/06/18 06:40:34;;;;;;;6.03;4.08;;;;;;;26.43;59.27;100257.85;1650924;86;21140;-72
2022/06/18 06:43:01;;;;;;;4.97;3.60;;;;;;;26.36;56.58;100257.66;1684241;85;21073;-71
2022/06/18 06:45:30;;;;;;;5.40;3.80;;;;;;;26.21;56.08;100259.71;1661958;85;21033;-73
2022/06/18 06:47:57;;;;;;;4.10;3.70;;;;;;;25.95;56.62;100264.49;1678393;85;21068;-73
2022/06/18 06:50:25;;;;;;;8.18;4.10;;;;;;;25.67;56.84;100264.50;1678195;85;21065;-72
2022/06/18 06:52:52;;;;;;;7.37;3.65;;;;;;;25.30;57.57;100268.10;1678216;85;21110;-73
2022/06/18 06:58:10;;;;;;;5.22;3.92;;;;;;;24.87;58.16;100270.86;1678137;84;21067;-73
2022/06/18 07:00:45;;;;;;;4.72;3.98;;;;;;;25.02;57.95;100259.61;1678129;85;22181;-72
2022/06/18 07:03:14;;;;;;;6.78;4.00;;;;;;;25.14;59.03;100258.42;1678311;85;21584;-73
2022/06/18 07:05:41;;;;;;;4.22;3.87;;;;;;;25.15;59.54;100262.83;1678139;85;21261;-71
2022/06/18 07:08:09;;;;;;;6.10;3.87;;;;;;;25.19;60.31;100258.89;1678127;85;21053;-72
2022/06/18 07:10:37;;;;;;;6.33;4.25;;;;;;;25.13;60.14;100270.22;1678322;84;21216;-72
2022/06/18 07:13:04;;;;;;;6.12;4.28;;;;;;;25.01;60.18;100260.63;1678140;85;21096;-72
2022/06/18 07:15:33;;;;;;;5.03;4.17;;;;;;;24.91;60.45;100268.23;1678156;85;21125;-72
2022/06/18 07:18:03;;;;;;;6.47;4.67;;;;;;;24.89;61.54;100258.58;1678407;85;21033;-72
2022/06/18 07:20:32;;;;;;;5.42;4.90;;;;;;;24.95;61.99;100266.59;1678214;85;21071;-73
2022/06/18 07:22:58;;;;;;;11.90;5.00;;;;;;;24.95;61.77;100271.98;1678170;85;21092;-72
2022/06/18 07:25:25;;;;;;;5.45;4.60;;;;;;;24.82;61.60;100273.12;1678276;85;21064;-71
2022/06/18 07:27:54;;;;;;;6.75;5.33;;;;;;;24.57;62.38;100273.73;1678078;85;21120;-71
2022/06/18 07:30:21;;;;;;;7.72;4.90;;;;;;;24.38;62.85;100272.73;1677941;85;21229;-71
2022/06/18 07:32:49;;;;;;;9.85;5.78;;;;;;;24.14;63.60;100275.86;1678005;85;21052;-71
2022/06/18 07:35:25;;;;;;;7.00;5.35;;;;;;;23.87;65.05;100281.91;1678246;85;21100;-72
2022/06/18 07:37:56;;;;;;;7.58;5.80;;;;;;;23.61;65.61;100282.39;1677914;85;21053;-72
2022/06/18 07:40:23;;;;;;;6.97;6.37;;;;;;;23.45;66.62;100280.20;1678288;85;21545;-73
2022/06/18 07:42:52;;;;;;;6.75;6.03;;;;;;;23.32;66.88;100286.30;1678149;85;21550;-74
2022/06/18 07:45:24;;;;;;;6.97;5.65;;;;;;;23.17;67.75;100279.61;1677999;85;21022;-72
2022/06/18 07:47:51;;;;;;;8.75;7.22;;;;;;;22.98;68.93;100284.34;1678083;85;21102;-72
2022/06/18 07:50:20;;;;;;;9.90;7.30;;;;;;;22.76;69.85;100279.48;1678098;85;22262;-74
2022/06/18 07:52:47;;;;;;;11.73;7.50;;;;;;;22.57;70.34;100283.39;1720541;83;21018;-73
2022/06/18 07:55:23;;;;;;;9.48;6.95;;;;;;;22.37;71.47;100284.57;1720514;82;21045;-73
2022/06/18 07:57:50;;;;;;;9.28;6.17;;;;;;;22.18;72.43;100291.09;1720543;83;21069;-72
2022/06/18 08:00:21;;;;;;;7.55;6.42;;;;;;;22.04;72.94;100292.70;1720518;83;21521;-73
2022/06/18 08:02:48;;;;;;;9.83;7.47;;;;;;;21.94;73.02;100289.44;1720576;82;21120;-73
2022/06/18 08:05:23;;;;;;;11.73;6.70;;;;;;;21.90;73.80;100292.03;1720758;83;21064;-73
2022/06/18 08:07:51;;;;;;;7.80;7.00;;;;;;;21.86;73.73;100286.55;1720632;83;21246;-72
2022/06/18 08:10:19;;;;;;;8.48;6.72;;;;;;;21.88;74.58;100291.77;1720656;83;21005;-73
2022/06/18 08:12:46;;;;;;;8.15;6.87;;;;;;;22.05;75.16;100285.04;1720853;83;21029;-71
2022/06/18 08:15:12;;;;;;;7.90;6.03;;;;;;;22.29;74.25;100284.37;1720949;83;21528;-73
2022/06/18 08:17:39;;;;;;;8.70;6.17;;;;;;;22.59;72.16;100282.74;1720844;83;21104;-71
2022/06/18 08:20:08;;;;;;;6.85;5.85;;;;;;;22.88;70.06;100280.77;1720905;82;22110;-72
2022/06/18 08:22:35;;;;;;;9.70;5.42;;;;;;;23.09;68.01;100286.13;1720676;83;21105;-73
2022/06/18 08:25:03;;;;;;;7.35;5.60;;;;;;;23.09;67.36;100291.00;1720902;83;21049;-73
2022/06/18 08:27:30;;;;;;;6.05;5.28;;;;;;;23.08;67.85;100293.34;1720593;82;21089;-71
2022/06/18 08:29:57;;;;;;;10.23;6.22;;;;;;;22.96;67.26;100297.05;1721245;83;21143;-74
2022/06/18 08:32:24;;;;;;;9.75;6.03;;;;;;;22.73;68.40;100301.23;1725671;83;22244;-72
2022/06/18 08:34:51;;;;;;;11.68;5.62;;;;;;;22.54;70.54;100299.73;1725748;82;21080;-71
2022/06/18 08:37:17;;;;;;;8.03;5.67;;;;;;;22.39;74.28;100306.77;1725634;82;21057;-71
2022/06/18 08:39:45;;;;;;;9.73;5.90;;;;;;;22.22;76.41;100307.80;1725576;82;21576;-72
2022/06/18 08:42:35;;;;;;;7.25;5.37;;;;;;;21.86;78.26;100316.05;1725974;83;21080;-72
2022/06/18 08:45:13;;;;;;;8.70;5.80;;;;;;;21.58;78.75;100315.59;1713099;82;21108;-73
2022/06/18 08:47:54;;;;;;;9.73;6.25;;;;;;;21.40;82.00;100319.74;1649510;84;21116;-73
2022/06/18 08:50:57;;;;;;;7.20;5.87;;;;;;;21.23;84.67;100319.68;1683288;84;21044;-72
2022/06/18 08:54:07;;;;;;;8.13;6.10;;;;;;;21.07;87.21;100320.52;1691395;84;21057;-74
2022/06/18 08:57:02;;;;;;;6.95;6.25;;;;;;;20.93;88.21;100321.59;1691448;84;21093;-74
2022/06/18 08:59:55;;;;;;;6.80;6.10;;;;;;;20.82;88.95;100317.09;1691315;84;22158;-72
2022/06/18 09:02:49;;;;;;;7.00;5.72;;;;;;;20.84;89.76;100319.63;1691347;84;21080;-72
2022/06/18 09:05:45;;;;;;;9.85;5.80;;;;;;;20.74;89.02;100314.98;1658010;86;21080;-75
2022/06/18 09:08:30;;;;;;;8.78;5.92;;;;;;;20.66;89.57;100321.42;1653224;86;21018;-73
2022/06/18 09:11:24;;;;;;;6.45;5.45;;;;;;;20.70;90.53;100320.68;1658127;86;21086;-74
2022/06/18 09:14:14;;;;;;;6.47;5.72;;;;;;;20.78;91.54;100326.80;1658196;86;22170;-72
2022/06/18 09:16:49;;;;;;;7.33;5.90;;;;;;;20.90;89.78;100327.19;1658219;86;21076;-72
2022/06/18 09:19:19;;;;;;;12.68;6.75;;;;;;;21.10;91.94;100329.18;1657734;86;21056;-73
2022/06/18 09:21:58;;;;;;;6.15;5.55;;;;;;;21.41;89.99;100330.81;1658033;86;21613;-73
2022/06/18 09:24:36;;;;;;;7.50;6.03;;;;;;;21.71;89.75;100330.67;1657883;86;21090;-73
2022/06/18 09:27:07;;;;;;;6.85;6.15;;;;;;;22.22;88.77;100327.42;1657263;86;21189;-72
2022/06/18 09:29:45;;;;;;;6.85;5.85;;;;;;;22.66;84.04;100317.51;1656319;86;21061;-72
2022/06/18 09:32:26;;;;;;;7.00;5.40;;;;;;;23.18;82.23;100314.87;1653157;86;21089;-73
2022/06/18 09:35:17;;;;;;;9.63;5.08;;;;;;;23.84;77.22;100313.12;1684457;84;21556;-72
2022/06/18 09:38:07;;;;;;;8.13;4.97;;;;;;;24.23;71.68;100301.08;1686545;85;21076;-72
2022/06/18 09:40:38;;;;;;;5.50;4.53;;;;;;;24.43;69.73;100304.13;1685923;85;21057;-73
2022/06/18 09:43:49;;;;;;;5.17;4.62;;;;;;;24.55;67.37;100305.33;1685223;85;21049;-72
2022/06/18 09:46:23;;;;;;;6.47;4.62;;;;;;;24.77;67.00;100313.11;1716863;83;21053;-73
2022/06/18 09:48:49;;;;;;;5.22;4.72;;;;;;;25.24;64.15;100299.70;1719608;83;21665;-72
2022/06/18 09:51:52;;;;;;;5.90;4.10;;;;;;;25.57;64.00;100301.47;1720811;82;21072;-73
2022/06/18 09:54:17;;;;;;;3.62;3.27;;;;;;;25.74;62.40;100299.34;1720621;83;21148;-72
2022/06/18 09:56:52;;;;;;;3.77;2.87;;;;;;;25.81;58.04;100298.71;1720280;82;21018;-73
2022/06/18 09:59:33;;;;;;;3.30;2.50;;;;;;;25.79;56.71;100306.10;1720575;82;21030;-72
2022/06/18 10:02:00;;;;;;;3.62;2.30;;;;;;;25.53;56.27;100309.00;1720861;82;21022;-73
2022/06/18 10:07:27;;;;;;;4.42;2.55;;;;;;;25.66;54.47;100288.44;1720779;83;21140;-72
2022/06/18 10:10:02;;;;;;;3.58;2.20;;;;;;;26.15;54.24;100290.84;1720613;83;21192;-72
2022/06/18 10:12:37;;;;;;;2.45;2.10;;;;;;;26.76;52.92;100283.81;1720254;83;21561;-72
2022/06/18 10:15:07;;;;;;;3.55;2.27;;;;;;;27.20;50.95;100281.08;1720783;83;21334;-72
2022/06/18 10:17:59;;;;;;;4.45;2.37;;;;;;;27.39;50.97;100284.87;1720628;82;21088;-73
2022/06/18 10:20:52;;;;;;;2.90;2.45;;;;;;;27.49;49.16;100287.95;1720716;83;21687;-72
2022/06/18 10:23:56;;;;;;;5.33;2.27;;;;;;;27.66;48.71;100284.32;1720539;83;21031;-72
2022/06/18 10:26:49;;;;;;;4.53;2.37;;;;;;;27.79;47.34;100287.41;1720299;83;21541;-72
2022/06/18 10:29:52;;;;;;;4.12;2.08;;;;;;;27.66;47.19;100305.96;1720703;82;21097;-72
2022/06/18 10:32:47;;;;;;;2.60;2.30;;;;;;;27.42;45.53;100301.28;1714047;82;21021;-74
2022/06/18 10:35:31;;;;;;;2.67;2.10;;;;;;;27.10;44.19;100299.22;1713011;83;21790;-73
2022/06/18 10:38:16;;;;;;;3.83;2.85;;;;;;;26.72;44.11;100298.64;1712790;82;21526;-74
2022/06/18 10:40:55;;;;;;;3.42;2.80;;;;;;;26.31;46.01;100312.59;1712634;83;21054;-72
2022/06/18 10:43:39;;;;;;;3.58;3.10;;;;;;;25.90;47.54;100301.88;1712841;82;21038;-73
2022/06/18 10:46:16;;;;;;;2.52;2.33;;;;;;;25.55;48.86;100302.13;1685290;83;21125;-73
2022/06/18 10:48:47;;;;;;;3.70;2.58;;;;;;;25.30;49.73;100305.84;1678490;85;21181;-72
2022/06/18 10:51:19;;;;;;;;;;;;;;;25.16;50.33;100298.20;1681347;85;21568;-72
2022/06/18 10:53:52;;;;;;;6.37;2.85;;;;;;;25.12;50.50;100299.02;1678685;85;20186;-71
2022/06/18 10:56:25;;;;;;;6.60;3.20;;;;;;;25.17;50.78;100297.70;1645722;87;21074;-72
2022/06/18 10:58:55;;;;;;;4.47;2.77;;;;;;;25.16;51.05;100302.25;1645527;87;21041;-73
2022/06/18 11:01:28;;;;;;;3.40;2.60;;;;;;;25.13;51.21;100297.16;1646019;87;21124;-72
2022/06/18 11:04:05;;;;;;;2.67;2.25;;;;;;;25.06;50.43;100301.44;1645556;87;21723;-72
2022/06/18 11:06:32;;;;;;;3.90;2.30;;;;;;;24.94;49.44;100303.45;1644185;87;21089;-74
2022/06/18 11:09:02;;;;;;;4.45;2.75;;;;;;;24.95;49.75;100305.65;1626897;87;21619;-73
2022/06/18 11:11:32;;;;;;;4.42;2.83;;;;;;;24.91;50.63;100301.91;1645745;87;21094;-72
2022/06/18 11:14:17;;;;;;;2.75;2.00;;;;;;;24.78;51.33;100309.44;1678442;85;21173;-72
2022/06/18 11:16:45;;;;;;;1.80;1.70;;;;;;;24.75;51.94;100313.75;1678691;85;21125;-72
2022/06/18 11:19:21;;;;;;;8.70;2.60;;;;;;;24.43;55.26;100320.28;1678668;85;21077;-72
2022/06/18 11:21:47;;;;;;;3.15;2.15;;;;;;;24.17;58.77;100328.53;1645484;87;21570;-73
2022/06/18 11:24:37;;;;;;;5.12;2.42;;;;;;;23.84;61.88;100319.84;1678650;85;21030;-72
2022/06/18 11:27:07;;;;;;;4.15;2.30;;;;;;;23.44;65.33;100328.71;1645770;87;21213;-72
2022/06/18 11:29:52;;;;;;;4.37;2.67;;;;;;;22.89;66.87;100323.59;1645364;87;21569;-74
2022/06/18 11:32:32;;;;;;;4.12;2.60;;;;;;;22.57;68.64;100327.68;1650708;86;21086;-74
2022/06/18 11:35:12;;;;;;;2.62;2.40;;;;;;;22.50;70.61;100321.09;1652731;86;21057;-73
2022/06/18 11:37:39;;;;;;;4.65;2.98;;;;;;;22.39;69.51;100320.17;1653215;86;21668;-73
2022/06/18 11:40:11;;;;;;;4.12;2.52;;;;;;;22.34;69.65;100318.87;1652895;86;21093;-73
2022/06/18 11:42:59;;;;;;;3.35;2.95;;;;;;;22.27;69.47;100314.50;1653220;86;21070;-74
2022/06/18 11:45:43;;;;;;;4.58;2.60;;;;;;;22.31;68.92;100315.92;1647237;85;21075;-72
2022/06/18 11:48:40;;;;;;;4.12;2.42;;;;;;;22.31;69.13;100313.25;1720565;83;21077;-73
2022/06/18 11:51:38;;;;;;;3.75;2.45;;;;;;;22.38;69.10;100303.73;1720022;83;21049;-74
2022/06/18 11:54:27;;;;;;;3.27;2.27;;;;;;;22.43;68.37;100305.16;1702183;83;21124;-73
2022/06/18 11:57:03;;;;;;;8.68;2.65;;;;;;;22.43;68.47;100303.81;1720571;83;21029;-73
2022/06/18 11:59:53;;;;;;;4.75;2.35;;;;;;;22.38;68.67;100303.73;1719243;83;21104;-74
2022/06/18 12:02:28;;;;;;;2.55;1.65;;;;;;;22.32;68.23;100301.55;1720499;83;21080;-74
2022/06/18 12:05:04;;;;;;;3.83;2.15;;;;;;;22.24;68.93;100301.33;1690353;83;21002;-74